sensor_id;sensor_type;location;lat;lon;timestamp;temperature;humidity
77467;DHT22;66564;42.482;25.548;2023-04-01T00:00:19;10.92;59.04
77467;DHT22;66564;42.482;25.548;2023-04-01T00:02:48;10.87;59.26
77467;DHT22;66564;42.482;25.548;2023-04-01T00:05:14;10.81;60.05
77467;DHT22;66564;42.482;25.548;2023-04-01T00:07:40;10.79;59.31
77467;DHT22;66564;42.482;25.548;2023-04-01T00:10:07;10.74;58.80
77467;DHT22;66564;42.482;25.548;2023-04-01T00:12:34;10.76;58.97
77467;DHT22;66564;42.482;25.548;2023-04-01T00:15:00;10.73;59.32
77467;DHT22;66564;42.482;25.548;2023-04-01T00:17:26;10.70;59.90
77467;DHT22;66564;42.482;25.548;2023-04-01T00:19:54;10.67;59.75
77467;DHT22;66564;42.482;25.548;2023-04-01T00:22:20;10.63;59.61
77467;DHT22;66564;42.482;25.548;2023-04-01T00:24:45;10.62;59.74
77467;DHT22;66564;42.482;25.548;2023-04-01T00:27:11;10.62;59.01
77467;DHT22;66564;42.482;25.548;2023-04-01T00:29:36;10.63;59.64
77467;DHT22;66564;42.482;25.548;2023-04-01T00:32:02;10.62;59.09
77467;DHT22;66564;42.482;25.548;2023-04-01T00:34:27;10.63;59.93
77467;DHT22;66564;42.482;25.548;2023-04-01T00:36:53;10.62;58.80
77467;DHT22;66564;42.482;25.548;2023-04-01T00:39:20;10.56;60.07
77467;DHT22;66564;42.482;25.548;2023-04-01T00:41:46;10.60;59.41
77467;DHT22;66564;42.482;25.548;2023-04-01T00:44:21;10.62;59.58
77467;DHT22;66564;42.482;25.548;2023-04-01T00:46:47;10.62;60.75
77467;DHT22;66564;42.482;25.548;2023-04-01T00:49:14;10.56;60.98
77467;DHT22;66564;42.482;25.548;2023-04-01T00:51:41;10.50;60.75
77467;DHT22;66564;42.482;25.548;2023-04-01T00:54:07;10.52;59.60
77467;DHT22;66564;42.482;25.548;2023-04-01T00:56:36;10.55;61.13
77467;DHT22;66564;42.482;25.548;2023-04-01T00:59:09;10.53;60.46
77467;DHT22;66564;42.482;25.548;2023-04-01T01:01:36;10.50;59.64
77467;DHT22;66564;42.482;25.548;2023-04-01T01:04:02;10.57;60.77
77467;DHT22;66564;42.482;25.548;2023-04-01T01:11:48;10.52;60.72
77467;DHT22;66564;42.482;25.548;2023-04-01T01:16:59;10.49;60.69
77467;DHT22;66564;42.482;25.548;2023-04-01T01:23:14;10.40;60.68
77467;DHT22;66564;42.482;25.548;2023-04-01T01:28:21;10.49;60.62
77467;DHT22;66564;42.482;25.548;2023-04-01T01:36:11;10.48;60.06
77467;DHT22;66564;42.482;25.548;2023-04-01T01:38:38;10.52;60.19
77467;DHT22;66564;42.482;25.548;2023-04-01T01:41:05;10.50;61.61
77467;DHT22;66564;42.482;25.548;2023-04-01T01:43:43;10.50;60.08
77467;DHT22;66564;42.482;25.548;2023-04-01T01:46:13;10.45;61.15
77467;DHT22;66564;42.482;25.548;2023-04-01T01:48:41;10.49;62.09
77467;DHT22;66564;42.482;25.548;2023-04-01T01:51:08;10.56;60.80
77467;DHT22;66564;42.482;25.548;2023-04-01T01:53:34;10.50;60.23
77467;DHT22;66564;42.482;25.548;2023-04-01T01:56:00;10.45;61.90
77467;DHT22;66564;42.482;25.548;2023-04-01T01:58:42;10.48;62.41
77467;DHT22;66564;42.482;25.548;2023-04-01T02:01:14;10.49;62.21
77467;DHT22;66564;42.482;25.548;2023-04-01T02:03:42;10.55;60.42
77467;DHT22;66564;42.482;25.548;2023-04-01T02:06:15;10.56;61.41
77467;DHT22;66564;42.482;25.548;2023-04-01T02:08:49;10.52;62.17
77467;DHT22;66564;42.482;25.548;2023-04-01T02:11:19;10.60;60.82
77467;DHT22;66564;42.482;25.548;2023-04-01T02:13:49;10.56;61.97
77467;DHT22;66564;42.482;25.548;2023-04-01T02:16:20;10.57;61.58
77467;DHT22;66564;42.482;25.548;2023-04-01T02:18:51;10.53;61.44
77467;DHT22;66564;42.482;25.548;2023-04-01T02:21:20;10.60;62.38
77467;DHT22;66564;42.482;25.548;2023-04-01T02:23:46;10.57;61.57
77467;DHT22;66564;42.482;25.548;2023-04-01T02:26:12;10.56;62.30
77467;DHT22;66564;42.482;25.548;2023-04-01T02:28:40;10.59;60.47
77467;DHT22;66564;42.482;25.548;2023-04-01T02:31:10;10.60;61.99
77467;DHT22;66564;42.482;25.548;2023-04-01T02:33:37;10.59;62.23
77467;DHT22;66564;42.482;25.548;2023-04-01T02:36:04;10.57;62.24
77467;DHT22;66564;42.482;25.548;2023-04-01T02:38:30;10.57;61.79
77467;DHT22;66564;42.482;25.548;2023-04-01T02:40:59;10.57;61.36
77467;DHT22;66564;42.482;25.548;2023-04-01T02:43:27;10.53;61.40
77467;DHT22;66564;42.482;25.548;2023-04-01T02:45:53;10.60;61.35
77467;DHT22;66564;42.482;25.548;2023-04-01T02:48:19;10.53;60.92
77467;DHT22;66564;42.482;25.548;2023-04-01T02:50:45;10.59;60.79
77467;DHT22;66564;42.482;25.548;2023-04-01T02:53:11;10.57;61.31
77467;DHT22;66564;42.482;25.548;2023-04-01T02:55:37;10.63;61.65
77467;DHT22;66564;42.482;25.548;2023-04-01T02:58:02;10.63;62.20
77467;DHT22;66564;42.482;25.548;2023-04-01T03:00:28;10.59;61.83
77467;DHT22;66564;42.482;25.548;2023-04-01T03:02:54;10.63;62.03
77467;DHT22;66564;42.482;25.548;2023-04-01T03:05:20;10.64;61.84
77467;DHT22;66564;42.482;25.548;2023-04-01T03:07:46;10.69;61.15
77467;DHT22;66564;42.482;25.548;2023-04-01T03:10:12;10.62;61.39
77467;DHT22;66564;42.482;25.548;2023-04-01T03:12:37;10.67;61.39
77467;DHT22;66564;42.482;25.548;2023-04-01T03:15:03;10.64;62.12
77467;DHT22;66564;42.482;25.548;2023-04-01T03:17:29;10.72;62.18
77467;DHT22;66564;42.482;25.548;2023-04-01T03:19:55;10.74;62.49
77467;DHT22;66564;42.482;25.548;2023-04-01T03:22:20;10.77;62.70
77467;DHT22;66564;42.482;25.548;2023-04-01T03:24:47;10.80;62.44
77467;DHT22;66564;42.482;25.548;2023-04-01T03:27:13;10.83;63.00
77467;DHT22;66564;42.482;25.548;2023-04-01T03:29:38;10.92;62.53
77467;DHT22;66564;42.482;25.548;2023-04-01T03:32:04;10.85;62.92
77467;DHT22;66564;42.482;25.548;2023-04-01T03:34:30;10.85;62.70
77467;DHT22;66564;42.482;25.548;2023-04-01T03:36:55;10.94;62.49
77467;DHT22;66564;42.482;25.548;2023-04-01T03:39:21;10.96;62.79
77467;DHT22;66564;42.482;25.548;2023-04-01T03:41:47;10.93;62.45
77467;DHT22;66564;42.482;25.548;2023-04-01T03:44:12;10.93;62.85
77467;DHT22;66564;42.482;25.548;2023-04-01T03:46:38;10.92;62.62
77467;DHT22;66564;42.482;25.548;2023-04-01T03:49:07;10.99;62.38
77467;DHT22;66564;42.482;25.548;2023-04-01T03:51:40;11.07;62.40
77467;DHT22;66564;42.482;25.548;2023-04-01T03:54:06;11.07;62.45
77467;DHT22;66564;42.482;25.548;2023-04-01T03:56:31;11.07;62.40
77467;DHT22;66564;42.482;25.548;2023-04-01T03:58:57;11.04;61.89
77467;DHT22;66564;42.482;25.548;2023-04-01T04:01:22;11.07;61.66
77467;DHT22;66564;42.482;25.548;2023-04-01T04:03:49;11.04;62.17
77467;DHT22;66564;42.482;25.548;2023-04-01T04:06:16;11.06;61.58
77467;DHT22;66564;42.482;25.548;2023-04-01T04:08:42;11.08;61.16
77467;DHT22;66564;42.482;25.548;2023-04-01T04:11:08;11.07;62.50
77467;DHT22;66564;42.482;25.548;2023-04-01T04:13:34;11.08;61.77
77467;DHT22;66564;42.482;25.548;2023-04-01T04:16:01;11.08;62.37
77467;DHT22;66564;42.482;25.548;2023-04-01T04:18:27;11.07;62.08
77467;DHT22;66564;42.482;25.548;2023-04-01T04:20:52;11.06;61.08
77467;DHT22;66564;42.482;25.548;2023-04-01T04:23:18;11.04;62.01
77467;DHT22;66564;42.482;25.548;2023-04-01T04:25:57;11.06;62.59
77467;DHT22;66564;42.482;25.548;2023-04-01T04:28:24;11.04;62.96
77467;DHT22;66564;42.482;25.548;2023-04-01T04:30:50;11.07;62.18
77467;DHT22;66564;42.482;25.548;2023-04-01T04:33:16;11.10;62.67
77467;DHT22;66564;42.482;25.548;2023-04-01T04:35:41;11.04;63.08
77467;DHT22;66564;42.482;25.548;2023-04-01T04:38:07;11.06;63.05
77467;DHT22;66564;42.482;25.548;2023-04-01T04:40:32;11.03;62.28
77467;DHT22;66564;42.482;25.548;2023-04-01T04:42:58;11.00;62.28
77467;DHT22;66564;42.482;25.548;2023-04-01T04:45:23;10.97;61.59
77467;DHT22;66564;42.482;25.548;2023-04-01T04:47:49;10.99;63.15
77467;DHT22;66564;42.482;25.548;2023-04-01T04:50:15;11.00;63.01
77467;DHT22;66564;42.482;25.548;2023-04-01T04:52:42;10.97;63.01
77467;DHT22;66564;42.482;25.548;2023-04-01T04:55:07;10.96;62.45
77467;DHT22;66564;42.482;25.548;2023-04-01T04:57:33;10.97;63.36
77467;DHT22;66564;42.482;25.548;2023-04-01T04:59:58;10.90;63.06
77467;DHT22;66564;42.482;25.548;2023-04-01T05:02:24;10.94;63.37
77467;DHT22;66564;42.482;25.548;2023-04-01T05:04:49;10.92;63.10
77467;DHT22;66564;42.482;25.548;2023-04-01T05:07:14;10.94;63.49
77467;DHT22;66564;42.482;25.548;2023-04-01T05:09:40;10.96;64.00
77467;DHT22;66564;42.482;25.548;2023-04-01T05:12:06;10.90;64.55
77467;DHT22;66564;42.482;25.548;2023-04-01T05:14:31;10.96;63.63
77467;DHT22;66564;42.482;25.548;2023-04-01T05:16:57;10.96;63.99
77467;DHT22;66564;42.482;25.548;2023-04-01T05:19:22;11.08;63.79
77467;DHT22;66564;42.482;25.548;2023-04-01T05:21:48;11.20;63.66
77467;DHT22;66564;42.482;25.548;2023-04-01T05:24:13;11.34;63.47
77467;DHT22;66564;42.482;25.548;2023-04-01T05:26:39;11.47;62.98
77467;DHT22;66564;42.482;25.548;2023-04-01T05:29:05;11.35;63.30
77467;DHT22;66564;42.482;25.548;2023-04-01T05:31:31;11.45;62.62
77467;DHT22;66564;42.482;25.548;2023-04-01T05:33:57;11.58;62.46
77467;DHT22;66564;42.482;25.548;2023-04-01T05:36:22;11.61;62.17
77467;DHT22;66564;42.482;25.548;2023-04-01T05:38:48;11.68;61.16
77467;DHT22;66564;42.482;25.548;2023-04-01T05:41:14;11.78;60.71
77467;DHT22;66564;42.482;25.548;2023-04-01T05:43:42;11.89;61.39
77467;DHT22;66564;42.482;25.548;2023-04-01T05:46:08;11.93;61.58
77467;DHT22;66564;42.482;25.548;2023-04-01T05:48:34;12.05;61.17
77467;DHT22;66564;42.482;25.548;2023-04-01T05:51:01;12.12;61.74
77467;DHT22;66564;42.482;25.548;2023-04-01T05:53:26;12.23;61.56
77467;DHT22;66564;42.482;25.548;2023-04-01T05:55:52;12.29;60.63
77467;DHT22;66564;42.482;25.548;2023-04-01T05:58:17;12.42;60.82
77467;DHT22;66564;42.482;25.548;2023-04-01T06:00:43;12.44;59.60
77467;DHT22;66564;42.482;25.548;2023-04-01T06:03:09;12.56;59.49
77467;DHT22;66564;42.482;25.548;2023-04-01T06:05:40;12.47;59.53
77467;DHT22;66564;42.482;25.548;2023-04-01T06:08:15;12.50;59.66
77467;DHT22;66564;42.482;25.548;2023-04-01T06:11:13;12.53;59.22
77467;DHT22;66564;42.482;25.548;2023-04-01T06:41:21;12.81;58.45
77467;DHT22;66564;42.482;25.548;2023-04-01T06:46:57;12.80;58.28
77467;DHT22;66564;42.482;25.548;2023-04-01T06:49:41;12.74;58.51
77467;DHT22;66564;42.482;25.548;2023-04-01T07:07:08;13.04;58.22
77467;DHT22;66564;42.482;25.548;2023-04-01T07:09:48;13.00;58.55
77467;DHT22;66564;42.482;25.548;2023-04-01T07:14:53;13.01;58.48
77467;DHT22;66564;42.482;25.548;2023-04-01T07:17:27;13.04;58.73
77467;DHT22;66564;42.482;25.548;2023-04-01T07:20:14;12.90;57.91
77467;DHT22;66564;42.482;25.548;2023-04-01T07:22:48;12.80;59.32
77467;DHT22;66564;42.482;25.548;2023-04-01T07:25:22;12.80;59.52
77467;DHT22;66564;42.482;25.548;2023-04-01T07:28:00;12.66;60.18
77467;DHT22;66564;42.482;25.548;2023-04-01T07:30:30;12.77;60.24
77467;DHT22;66564;42.482;25.548;2023-04-01T07:33:25;12.66;59.72
77467;DHT22;66564;42.482;25.548;2023-04-01T07:36:08;12.77;60.17
77467;DHT22;66564;42.482;25.548;2023-04-01T07:39:04;12.83;60.22
77467;DHT22;66564;42.482;25.548;2023-04-01T07:55:28;14.32;56.28
77467;DHT22;66564;42.482;25.548;2023-04-01T08:01:21;15.05;54.69
77467;DHT22;66564;42.482;25.548;2023-04-01T08:06:34;15.87;51.07
77467;DHT22;66564;42.482;25.548;2023-04-01T08:09:20;16.24;49.70
77467;DHT22;66564;42.482;25.548;2023-04-01T08:22:12;17.80;45.54
77467;DHT22;66564;42.482;25.548;2023-04-01T08:24:44;17.82;45.23
77467;DHT22;66564;42.482;25.548;2023-04-01T08:27:21;18.14;45.50
77467;DHT22;66564;42.482;25.548;2023-04-01T08:29:55;18.43;45.10
77467;DHT22;66564;42.482;25.548;2023-04-01T08:32:34;18.69;45.42
77467;DHT22;66564;42.482;25.548;2023-04-01T08:37:56;18.74;44.98
77467;DHT22;66564;42.482;25.548;2023-04-01T08:49:09;19.84;42.37
77467;DHT22;66564;42.482;25.548;2023-04-01T08:57:41;20.17;38.83
77467;DHT22;66564;42.482;25.548;2023-04-01T09:05:47;19.90;38.44
77467;DHT22;66564;42.482;25.548;2023-04-01T09:28:38;18.60;45.63
77467;DHT22;66564;42.482;25.548;2023-04-01T09:45:00;17.73;50.07
77467;DHT22;66564;42.482;25.548;2023-04-01T09:47:48;17.91;49.99
77467;DHT22;66564;42.482;25.548;2023-04-01T10:01:39;17.05;53.80
77467;DHT22;66564;42.482;25.548;2023-04-01T10:22:04;17.91;52.12
77467;DHT22;66564;42.482;25.548;2023-04-01T11:23:50;20.04;47.37
77467;DHT22;66564;42.482;25.548;2023-04-01T11:26:52;20.41;46.92
77467;DHT22;66564;42.482;25.548;2023-04-01T11:32:29;20.25;47.22
77467;DHT22;66564;42.482;25.548;2023-04-01T11:35:00;19.56;49.38
77467;DHT22;66564;42.482;25.548;2023-04-01T11:40:47;19.96;49.03
77467;DHT22;66564;42.482;25.548;2023-04-01T11:46:12;19.97;48.03
77467;DHT22;66564;42.482;25.548;2023-04-01T11:55:14;20.00;49.37
77467;DHT22;66564;42.482;25.548;2023-04-01T12:03:27;19.92;48.82
77467;DHT22;66564;42.482;25.548;2023-04-01T12:09:22;20.30;47.97
77467;DHT22;66564;42.482;25.548;2023-04-01T12:12:04;20.31;46.84
77467;DHT22;66564;42.482;25.548;2023-04-01T12:14:40;20.40;46.56
77467;DHT22;66564;42.482;25.548;2023-04-01T12:17:29;20.37;47.01
77467;DHT22;66564;42.482;25.548;2023-04-01T12:22:59;20.74;46.71
77467;DHT22;66564;42.482;25.548;2023-04-01T12:37:26;20.41;46.56
77467;DHT22;66564;42.482;25.548;2023-04-01T12:40:29;20.31;44.73
77467;DHT22;66564;42.482;25.548;2023-04-01T12:45:34;20.24;46.18
77467;DHT22;66564;42.482;25.548;2023-04-01T13:07:52;19.12;45.82
77467;DHT22;66564;42.482;25.548;2023-04-01T13:16:38;19.40;45.33
77467;DHT22;66564;42.482;25.548;2023-04-01T13:19:15;19.50;45.33
77467;DHT22;66564;42.482;25.548;2023-04-01T13:21:57;19.42;45.46
77467;DHT22;66564;42.482;25.548;2023-04-01T13:25:06;19.58;45.27
77467;DHT22;66564;42.482;25.548;2023-04-01T13:33:23;19.72;45.35
77467;DHT22;66564;42.482;25.548;2023-04-01T13:35:48;19.74;45.20
77467;DHT22;66564;42.482;25.548;2023-04-01T13:41:11;19.86;44.91
77467;DHT22;66564;42.482;25.548;2023-04-01T13:43:49;19.90;45.19
77467;DHT22;66564;42.482;25.548;2023-04-01T13:51:50;20.04;44.94
77467;DHT22;66564;42.482;25.548;2023-04-01T13:57:07;20.23;44.31
77467;DHT22;66564;42.482;25.548;2023-04-01T14:10:42;19.67;45.33
77467;DHT22;66564;42.482;25.548;2023-04-01T14:13:37;19.56;45.44
77467;DHT22;66564;42.482;25.548;2023-04-01T14:24:14;18.75;47.39
77467;DHT22;66564;42.482;25.548;2023-04-01T14:29:43;18.53;48.10
77467;DHT22;66564;42.482;25.548;2023-04-01T14:32:46;18.43;48.56
77467;DHT22;66564;42.482;25.548;2023-04-01T14:47:48;16.85;64.07
77467;DHT22;66564;42.482;25.548;2023-04-01T14:50:23;15.39;59.46
77467;DHT22;66564;42.482;25.548;2023-04-01T14:56:05;14.77;64.86
77467;DHT22;66564;42.482;25.548;2023-04-01T14:58:45;14.53;66.33
77467;DHT22;66564;42.482;25.548;2023-04-01T15:03:52;14.60;66.45
77467;DHT22;66564;42.482;25.548;2023-04-01T15:12:32;14.08;70.71
77467;DHT22;66564;42.482;25.548;2023-04-01T15:20:33;14.15;70.35
77467;DHT22;66564;42.482;25.548;2023-04-01T15:43:25;14.03;71.44
77467;DHT22;66564;42.482;25.548;2023-04-01T15:49:12;14.09;71.09
77467;DHT22;66564;42.482;25.548;2023-04-01T15:51:47;14.16;71.33
77467;DHT22;66564;42.482;25.548;2023-04-01T16:03:59;14.20;70.78
77467;DHT22;66564;42.482;25.548;2023-04-01T16:07:43;14.20;71.01
77467;DHT22;66564;42.482;25.548;2023-04-01T16:10:58;14.06;71.40
77467;DHT22;66564;42.482;25.548;2023-04-01T16:20:54;14.02;71.16
77467;DHT22;66564;42.482;25.548;2023-04-01T16:24:20;13.79;71.89
77467;DHT22;66564;42.482;25.548;2023-04-01T16:33:39;13.76;72.23
77467;DHT22;66564;42.482;25.548;2023-04-01T16:43:16;13.75;71.72
77467;DHT22;66564;42.482;25.548;2023-04-01T16:49:32;13.68;71.75
77467;DHT22;66564;42.482;25.548;2023-04-01T16:59:27;13.58;72.23
77467;DHT22;66564;42.482;25.548;2023-04-01T17:02:33;13.61;71.35
77467;DHT22;66564;42.482;25.548;2023-04-01T17:08:53;13.54;71.57
77467;DHT22;66564;42.482;25.548;2023-04-01T17:12:22;13.51;72.43
77467;DHT22;66564;42.482;25.548;2023-04-01T17:21:44;13.34;70.62
77467;DHT22;66564;42.482;25.548;2023-04-01T17:27:52;13.25;70.57
77467;DHT22;66564;42.482;25.548;2023-04-01T17:53:33;12.88;71.72
77467;DHT22;66564;42.482;25.548;2023-04-01T17:57:20;12.83;71.70
77467;DHT22;66564;42.482;25.548;2023-04-01T18:00:18;12.93;71.40
77467;DHT22;66564;42.482;25.548;2023-04-01T18:09:49;12.83;71.59
77467;DHT22;66564;42.482;25.548;2023-04-01T18:19:47;12.81;71.60
77467;DHT22;66564;42.482;25.548;2023-04-01T18:23:14;12.88;72.10
77467;DHT22;66564;42.482;25.548;2023-04-01T18:26:35;12.97;72.12
77467;DHT22;66564;42.482;25.548;2023-04-01T18:29:53;13.01;71.75
77467;DHT22;66564;42.482;25.548;2023-04-01T18:33:05;12.88;72.22
77467;DHT22;66564;42.482;25.548;2023-04-01T18:36:19;12.84;72.64
77467;DHT22;66564;42.482;25.548;2023-04-01T18:40:03;12.63;73.21
77467;DHT22;66564;42.482;25.548;2023-04-01T18:47:03;12.49;73.54
77467;DHT22;66564;42.482;25.548;2023-04-01T18:53:58;12.43;73.36
77467;DHT22;66564;42.482;25.548;2023-04-01T18:57:22;12.61;72.82
77467;DHT22;66564;42.482;25.548;2023-04-01T19:01:31;12.60;72.90
77467;DHT22;66564;42.482;25.548;2023-04-01T19:10:52;12.90;71.50
77467;DHT22;66564;42.482;25.548;2023-04-01T19:26:35;12.96;70.61
77467;DHT22;66564;42.482;25.548;2023-04-01T19:38:14;12.84;73.78
77467;DHT22;66564;42.482;25.548;2023-04-01T19:40:51;12.86;72.70
77467;DHT22;66564;42.482;25.548;2023-04-01T19:46:23;12.81;72.15
77467;DHT22;66564;42.482;25.548;2023-04-01T19:52:04;12.83;72.71
77467;DHT22;66564;42.482;25.548;2023-04-01T19:57:41;12.77;72.37
77467;DHT22;66564;42.482;25.548;2023-04-01T20:05:45;12.76;71.22
77467;DHT22;66564;42.482;25.548;2023-04-01T20:08:22;12.60;71.79
77467;DHT22;66564;42.482;25.548;2023-04-01T20:13:41;12.61;70.92
77467;DHT22;66564;42.482;25.548;2023-04-01T20:16:11;12.61;70.85
77467;DHT22;66564;42.482;25.548;2023-04-01T20:18:45;12.67;69.22
77467;DHT22;66564;42.482;25.548;2023-04-01T20:26:50;12.60;69.24
77467;DHT22;66564;42.482;25.548;2023-04-01T20:36:06;12.32;71.28
77467;DHT22;66564;42.482;25.548;2023-04-01T20:45:42;12.36;69.72
77467;DHT22;66564;42.482;25.548;2023-04-01T20:48:48;12.36;69.49
77467;DHT22;66564;42.482;25.548;2023-04-01T20:52:45;12.32;69.18
77467;DHT22;66564;42.482;25.548;2023-04-01T20:55:57;12.34;68.44
77467;DHT22;66564;42.482;25.548;2023-04-01T21:31:05;12.00;69.37
77467;DHT22;66564;42.482;25.548;2023-04-01T21:46:47;11.86;68.63
77467;DHT22;66564;42.482;25.548;2023-04-01T22:05:37;11.34;66.85
77467;DHT22;66564;42.482;25.548;2023-04-01T22:23:45;11.03;66.60
77467;DHT22;66564;42.482;25.548;2023-04-01T22:43:04;10.84;66.13
77467;DHT22;66564;42.482;25.548;2023-04-01T22:46:26;10.92;65.88
77467;DHT22;66564;42.482;25.548;2023-04-01T22:52:39;10.85;66.55
77467;DHT22;66564;42.482;25.548;2023-04-01T22:56:01;10.81;65.29
77467;DHT22;66564;42.482;25.548;2023-04-01T23:02:38;10.94;64.56
77467;DHT22;66564;42.482;25.548;2023-04-01T23:06:21;10.96;64.56
77467;DHT22;66564;42.482;25.548;2023-04-01T23:09:40;10.90;65.58
77467;DHT22;66564;42.482;25.548;2023-04-01T23:13:05;10.90;64.34
77467;DHT22;66564;42.482;25.548;2023-04-01T23:16:33;10.83;64.59
77467;DHT22;66564;42.482;25.548;2023-04-01T23:37:34;10.60;65.96
77467;DHT22;66564;42.482;25.548;2023-04-01T23:41:01;10.57;66.35
77467;DHT22;66564;42.482;25.548;2023-04-01T23:44:30;10.62;65.68
77467;DHT22;66564;42.482;25.548;2023-04-01T23:47:55;10.66;64.53
77467;DHT22;66564;42.482;25.548;2023-04-01T23:51:25;10.64;64.87
77467;DHT22;66564;42.482;25.548;2023-04-01T23:57:39;10.46;66.40
